Time;durP1;ratioP1;P1;durP2;ratioP2;P2;SDS_P1;SDS_P2;PMS_P1;PMS_P2;Temp;Humidity;BMP_temperature;BMP_pressure;BME280_temperature;BME280_humidity;BME280_pressure;Samples;Min_cycle;Max_cycle;Signal;HPM_P1;HPM_P2
2023/02/06 00:00:41;;;;;;;17.85;17.15;;;3.50;94.60;;;;;;5008150;28;20084;-74
2023/02/06 00:03:06;;;;;;;16.60;15.90;;;3.50;94.70;;;;;;5008170;28;20061;-74
2023/02/06 00:05:32;;;;;;;17.92;17.23;;;3.50;94.70;;;;;;5008167;28;20436;-74
2023/02/06 00:07:58;;;;;;;19.38;18.58;;;3.40;94.70;;;;;;5008147;28;20368;-74
2023/02/06 00:10:24;;;;;;;17.80;17.10;;;3.40;94.70;;;;;;4991626;28;20030;-74
2023/02/06 00:12:50;;;;;;;17.38;16.67;;;3.50;94.70;;;;;;5009396;28;20036;-74
2023/02/06 00:15:16;;;;;;;18.20;17.50;;;3.50;94.60;;;;;;5008076;28;20057;-74
2023/02/06 00:17:41;;;;;;;19.27;18.48;;;3.50;94.60;;;;;;5007707;28;20030;-74
2023/02/06 00:20:09;;;;;;;18.63;17.83;;;3.50;94.60;;;;;;5009128;28;20400;-74
2023/02/06 00:22:35;;;;;;;18.98;18.17;;;3.50;94.60;;;;;;5009153;28;20083;-74
2023/02/06 00:25:01;;;;;;;18.10;17.40;;;3.60;94.70;;;;;;5009158;28;20052;-74
2023/02/06 00:27:27;;;;;;;18.15;17.45;;;3.70;94.80;;;;;;5007794;28;20297;-74
2023/02/06 00:29:53;;;;;;;19.10;18.30;;;3.80;94.70;;;;;;5007997;28;20070;-74
2023/02/06 00:32:18;;;;;;;15.93;15.23;;;3.90;94.70;;;;;;5008967;28;20103;-74
2023/02/06 00:34:44;;;;;;;16.23;15.52;;;4.00;94.80;;;;;;5007844;28;20026;-74
2023/02/06 00:37:11;;;;;;;14.60;14.00;;;4.10;94.80;;;;;;5007609;28;20033;-74
2023/02/06 00:39:36;;;;;;;15.73;15.02;;;4.30;94.90;;;;;;5008937;28;20057;-74
2023/02/06 00:42:02;;;;;;;14.80;14.20;;;4.40;94.90;;;;;;5008155;28;20061;-74
2023/02/06 00:44:28;;;;;;;16.70;16.00;;;4.50;94.90;;;;;;5008893;28;20109;-74
2023/02/06 00:46:54;;;;;;;15.95;15.25;;;4.60;94.90;;;;;;5008609;28;20038;-74
2023/02/06 00:49:20;;;;;;;15.90;15.20;;;4.60;94.90;;;;;;4991138;28;20075;-74
2023/02/06 00:51:46;;;;;;;17.05;16.35;;;4.70;95.00;;;;;;5007641;28;20096;-74
2023/02/06 00:54:12;;;;;;;16.30;15.60;;;4.80;94.90;;;;;;5007223;28;20075;-74
2023/02/06 00:56:38;;;;;;;16.30;15.60;;;4.90;94.90;;;;;;5008180;28;20029;-74
2023/02/06 00:59:04;;;;;;;17.60;16.90;;;4.90;94.80;;;;;;5007413;28;20048;-74
2023/02/06 01:01:29;;;;;;;17.70;17.00;;;5.00;94.90;;;;;;5008546;28;20080;-75
2023/02/06 01:03:55;;;;;;;17.02;16.33;;;5.00;94.90;;;;;;5008464;28;20038;-74
2023/02/06 01:06:21;;;;;;;16.30;15.60;;;5.00;94.90;;;;;;5006963;28;20079;-74
2023/02/06 01:08:47;;;;;;;17.63;16.92;;;5.10;94.80;;;;;;5007115;28;20032;-74
2023/02/06 01:11:15;;;;;;;19.10;18.30;;;5.10;94.90;;;;;;5007083;28;20030;-74
2023/02/06 01:13:41;;;;;;;19.23;18.42;;;5.10;95.00;;;;;;5008275;28;20030;-74
2023/02/06 01:16:09;;;;;;;17.83;17.13;;;5.10;95.00;;;;;;5008282;28;20367;-74
2023/02/06 01:18:35;;;;;;;19.90;19.10;;;5.20;94.90;;;;;;5008131;28;20041;-74
2023/02/06 01:21:01;;;;;;;19.33;18.52;;;5.10;94.90;;;;;;4990657;28;20076;-74
2023/02/06 01:23:26;;;;;;;19.15;18.35;;;5.10;95.00;;;;;;5008194;28;20165;-73
2023/02/06 01:25:52;;;;;;;17.92;17.23;;;5.10;95.10;;;;;;5008478;28;20030;-76
2023/02/06 01:28:18;;;;;;;17.38;16.67;;;5.20;95.10;;;;;;5006924;28;20057;-76
2023/02/06 01:30:43;;;;;;;18.20;17.48;;;5.20;95.10;;;;;;5007084;28;20087;-74
2023/02/06 01:33:09;;;;;;;16.65;15.95;;;5.30;95.10;;;;;;5008089;28;20033;-73
2023/02/06 01:35:35;;;;;;;17.55;16.85;;;5.40;95.00;;;;;;5006975;28;20164;-74
2023/02/06 01:38:00;;;;;;;17.10;16.40;;;5.40;95.00;;;;;;5006996;28;20049;-73
2023/02/06 01:40:26;;;;;;;16.80;16.10;;;5.50;95.10;;;;;;4990575;28;20167;-73
2023/02/06 01:42:52;;;;;;;16.75;16.05;;;5.50;95.00;;;;;;5008260;28;20042;-76
2023/02/06 01:45:20;;;;;;;18.00;17.30;;;5.60;95.10;;;;;;5008400;28;20387;-75
2023/02/06 01:47:48;;;;;;;17.30;16.60;;;5.60;95.00;;;;;;5007838;28;20026;-76
2023/02/06 01:50:14;;;;;;;20.58;19.77;;;5.50;95.00;;;;;;5006689;28;20030;-76
2023/02/06 01:52:40;;;;;;;19.88;19.08;;;5.50;95.00;;;;;;4990168;28;20026;-74
2023/02/06 01:55:06;;;;;;;22.65;21.75;;;5.50;95.10;;;;;;5006533;28;20034;-76
2023/02/06 01:57:33;;;;;;;22.85;21.95;;;5.50;95.10;;;;;;5006238;28;20046;-76
2023/02/06 02:00:07;;;;;;;21.80;20.90;;;5.50;95.20;;;;;;5007613;28;20037;-76
2023/02/06 02:02:33;;;;;;;20.60;19.80;;;5.60;95.20;;;;;;5006414;28;20066;-76
2023/02/06 02:05:01;;;;;;;21.08;20.25;;;5.60;95.20;;;;;;5006411;28;20026;-76
2023/02/06 02:07:32;;;;;;;20.73;19.92;;;5.70;95.20;;;;;;5006564;28;20575;-76
2023/02/06 02:09:58;;;;;;;20.90;20.10;;;5.80;95.20;;;;;;5006412;28;20076;-74
2023/02/06 02:12:23;;;;;;;20.63;19.83;;;5.90;95.20;;;;;;5006320;28;20037;-74
2023/02/06 02:14:52;;;;;;;23.00;22.10;;;5.90;95.10;;;;;;5006373;28;20034;-76
2023/02/06 02:18:01;;;;;;;22.88;21.98;;;6.00;95.10;;;;;;5007753;28;20312;-76
2023/02/06 02:20:57;;;;;;;22.67;21.77;;;6.10;95.10;;;;;;5007659;28;20390;-76
2023/02/06 02:23:30;;;;;;;21.60;20.70;;;6.10;95.10;;;;;;5007718;28;20033;-76
2023/02/06 02:26:33;;;;;;;23.95;23.05;;;6.10;95.10;;;;;;5007380;28;20018;-76
2023/02/06 02:29:49;;;;;;;25.05;24.05;;;6.10;95.10;;;;;;5007199;28;20025;-76
2023/02/06 02:32:58;;;;;;;25.95;24.95;;;6.10;95.00;;;;;;5005027;28;20493;-76
2023/02/06 02:36:17;;;;;;;27.52;26.45;;;6.10;95.10;;;;;;4988486;28;20117;-75
2023/02/06 02:39:27;;;;;;;28.90;27.80;;;6.10;95.10;;;;;;4966086;28;20584;-76
2023/02/06 02:42:21;;;;;;;28.30;27.20;;;6.10;95.10;;;;;;5001546;28;20048;-76
2023/02/06 02:45:16;;;;;;;28.50;27.40;;;6.10;95.00;;;;;;5007210;28;20080;-76
2023/02/06 02:47:52;;;;;;;29.08;27.98;;;6.10;95.10;;;;;;5006786;28;20042;-76
2023/02/06 02:50:18;;;;;;;26.80;25.80;;;6.00;95.10;;;;;;5005984;28;20026;-76
2023/02/06 02:52:45;;;;;;;24.05;23.15;;;6.00;95.20;;;;;;5005821;28;20036;-76
2023/02/06 02:55:19;;;;;;;;;;;6.00;95.20;;;;;;5007960;28;20045;-76
2023/02/06 02:57:47;;;;;;;25.35;24.35;;;6.00;95.20;;;;;;5005701;28;19970;-76
2023/02/06 03:00:16;;;;;;;24.58;23.58;;;6.10;95.20;;;;;;5007192;28;20053;-76
2023/02/06 03:02:44;;;;;;;25.08;24.08;;;6.10;95.20;;;;;;5006023;28;20572;-76
2023/02/06 03:05:14;;;;;;;27.60;26.50;;;6.10;95.20;;;;;;5006634;28;20033;-75
2023/02/06 03:08:02;;;;;;;26.27;25.27;;;6.10;95.20;;;;;;5010710;28;20018;-76
2023/02/06 03:10:43;;;;;;;28.67;27.58;;;6.20;95.20;;;;;;5010733;28;20144;-74
2023/02/06 03:13:21;;;;;;;28.17;27.08;;;6.20;95.10;;;;;;5010571;28;20061;-76
2023/02/06 03:16:26;;;;;;;29.88;28.77;;;6.20;95.10;;;;;;5010659;28;20030;-74
2023/02/06 03:19:00;;;;;;;29.35;28.25;;;6.20;95.10;;;;;;5008050;28;20053;-74
2023/02/06 03:21:28;;;;;;;31.95;30.75;;;6.20;95.10;;;;;;4991393;28;20120;-76
2023/02/06 03:23:58;;;;;;;34.80;33.50;;;6.10;95.10;;;;;;5015771;28;20038;-76
2023/02/06 03:26:27;;;;;;;35.25;33.95;;;6.10;95.10;;;;;;5010247;28;20030;-76
2023/02/06 03:28:58;;;;;;;36.17;34.88;;;6.10;95.10;;;;;;5009001;28;20430;-76
2023/02/06 03:31:29;;;;;;;39.88;38.38;;;6.00;95.10;;;;;;5008953;28;20022;-76
2023/02/06 03:34:02;;;;;;;36.22;34.90;;;5.90;95.10;;;;;;5008983;28;20109;-75
2023/02/06 03:36:28;;;;;;;37.20;35.80;;;5.90;95.10;;;;;;5010100;28;20040;-76
2023/02/06 03:38:54;;;;;;;38.90;37.50;;;5.90;95.10;;;;;;5008843;28;20034;-76
2023/02/06 03:41:27;;;;;;;39.40;37.92;;;5.90;95.20;;;;;;5010109;28;20422;-76
2023/02/06 03:43:54;;;;;;;40.15;38.65;;;5.80;95.00;;;;;;5008777;28;20538;-76
2023/02/06 03:46:21;;;;;;;39.50;38.00;;;5.70;95.00;;;;;;5009857;28;20030;-73
2023/02/06 03:48:52;;;;;;;39.92;38.42;;;5.70;95.10;;;;;;5008799;28;20033;-76
2023/02/06 03:51:26;;;;;;;38.15;36.75;;;5.70;95.10;;;;;;5008750;28;20022;-76
2023/02/06 03:53:54;;;;;;;39.25;37.80;;;5.60;95.00;;;;;;5010048;28;20097;-76
2023/02/06 03:56:34;;;;;;;42.63;41.03;;;5.60;95.00;;;;;;5009628;28;20041;-76
2023/02/06 03:59:01;;;;;;;37.95;36.55;;;5.50;95.00;;;;;;5009537;28;20050;-76
2023/02/06 04:01:27;;;;;;;40.15;38.65;;;5.40;94.90;;;;;;5009522;28;20030;-76
2023/02/06 04:03:53;;;;;;;39.75;38.25;;;5.40;95.00;;;;;;5008406;28;20529;-76
2023/02/06 04:06:19;;;;;;;37.55;36.15;;;5.40;95.00;;;;;;5008179;28;20033;-76
2023/02/06 04:08:45;;;;;;;38.58;37.17;;;5.30;95.00;;;;;;5009628;28;20041;-76
2023/02/06 04:11:10;;;;;;;38.35;36.95;;;5.30;95.00;;;;;;5009621;28;20113;-75
2023/02/06 04:13:36;;;;;;;36.70;35.30;;;5.30;95.00;;;;;;4992208;28;20104;-76
2023/02/06 04:16:02;;;;;;;37.10;35.70;;;5.30;95.00;;;;;;5008156;28;20114;-76
2023/02/06 04:18:28;;;;;;;36.80;35.40;;;5.30;95.00;;;;;;5009448;28;20037;-75
2023/02/06 04:20:54;;;;;;;40.15;38.65;;;5.30;95.00;;;;;;5008055;28;20380;-76
2023/02/06 04:23:20;;;;;;;42.80;41.20;;;5.30;95.00;;;;;;5007975;28;20061;-76
2023/02/06 04:25:46;;;;;;;38.17;36.78;;;5.30;95.00;;;;;;5009106;28;20092;-76
2023/02/06 04:28:12;;;;;;;;;;;5.30;95.00;;;;;;5008430;28;20026;-76
2023/02/06 04:30:38;;;;;;;39.15;37.70;;;5.30;94.90;;;;;;5007918;28;19905;-76
2023/02/06 04:33:04;;;;;;;41.22;39.72;;;5.30;94.90;;;;;;5008027;28;20034;-76
2023/02/06 04:35:30;;;;;;;43.90;42.30;;;5.30;94.90;;;;;;5009156;28;20034;-76
2023/02/06 04:37:55;;;;;;;42.20;40.60;;;5.20;94.90;;;;;;5007816;28;20065;-76
2023/02/06 04:40:21;;;;;;;41.00;39.50;;;5.30;94.90;;;;;;5009120;28;20026;-76
2023/02/06 04:42:47;;;;;;;42.40;40.80;;;5.30;94.90;;;;;;5007897;28;20038;-76
2023/02/06 04:45:13;;;;;;;41.45;39.95;;;5.30;94.80;;;;;;5009003;28;20061;-80
2023/02/06 04:47:39;;;;;;;45.25;43.55;;;5.30;94.80;;;;;;5008983;28;20051;-80
2023/02/06 04:50:05;;;;;;;43.92;42.33;;;5.30;94.90;;;;;;5008949;28;20455;-80
2023/02/06 04:52:31;;;;;;;45.78;44.08;;;5.30;94.80;;;;;;5008864;28;20401;-80
2023/02/06 04:54:57;;;;;;;47.97;46.20;;;5.20;94.70;;;;;;5008740;28;20030;-80
2023/02/06 04:57:23;;;;;;;49.20;47.40;;;5.20;94.80;;;;;;5007380;28;20525;-80
2023/02/06 04:59:48;;;;;;;51.05;49.15;;;5.30;94.90;;;;;;5008865;28;20032;-80
2023/02/06 05:02:14;;;;;;;53.22;51.28;;;5.30;94.80;;;;;;5008777;28;20445;-80
2023/02/06 05:04:40;;;;;;;55.33;53.33;;;5.30;94.80;;;;;;5008704;28;20474;-80
2023/02/06 05:07:06;;;;;;;56.17;54.08;;;5.20;94.80;;;;;;5007430;28;20137;-80
2023/02/06 05:09:32;;;;;;;54.55;52.55;;;5.20;94.80;;;;;;5008773;28;20033;-80
2023/02/06 05:11:57;;;;;;;56.60;54.50;;;5.20;94.80;;;;;;5008563;28;20037;-80
2023/02/06 05:14:23;;;;;;;57.08;54.97;;;5.20;94.80;;;;;;5007116;28;20438;-80
2023/02/06 05:16:49;;;;;;;58.05;55.95;;;5.20;94.70;;;;;;4990804;28;20124;-80
2023/02/06 05:19:15;;;;;;;56.60;54.50;;;5.10;94.70;;;;;;5007510;28;20030;-80
2023/02/06 05:21:40;;;;;;;61.20;58.97;;;5.10;94.70;;;;;;5007276;28;20475;-80
2023/02/06 05:24:06;;;;;;;63.70;61.40;;;5.00;94.70;;;;;;5008487;28;20044;-80
2023/02/06 05:26:32;;;;;;;61.85;59.55;;;5.00;94.70;;;;;;4990726;28;20034;-78
2023/02/06 05:28:57;;;;;;;63.85;61.55;;;4.90;94.70;;;;;;5007921;28;20037;-80
2023/02/06 05:31:23;;;;;;;63.55;61.25;;;4.90;94.70;;;;;;5008192;28;20037;-80
2023/02/06 05:33:53;;;;;;;62.63;60.33;;;4.90;94.70;;;;;;5008426;28;20049;-80
2023/02/06 05:36:20;;;;;;;59.13;56.92;;;4.80;94.70;;;;;;5008194;28;20026;-80
2023/02/06 05:38:47;;;;;;;60.42;58.22;;;4.80;94.60;;;;;;5006871;28;20029;-80
2023/02/06 05:41:14;;;;;;;64.55;62.15;;;4.70;94.60;;;;;;5008350;28;20041;-79
2023/02/06 05:43:40;;;;;;;60.13;57.92;;;4.70;94.70;;;;;;5006742;28;20407;-80
2023/02/06 05:46:06;;;;;;;62.90;60.60;;;4.60;94.70;;;;;;5008097;28;20045;-80
2023/02/06 05:48:33;;;;;;;65.38;62.97;;;4.60;94.70;;;;;;5006942;28;20497;-80
2023/02/06 05:50:59;;;;;;;67.32;64.90;;;4.50;94.90;;;;;;5007942;28;20032;-80
2023/02/06 05:53:25;;;;;;;65.13;62.72;;;4.50;94.70;;;;;;5008001;28;20035;-80
2023/02/06 05:55:51;;;;;;;65.60;63.20;;;4.40;94.70;;;;;;5007903;28;20042;-80
2023/02/06 05:58:17;;;;;;;69.00;66.50;;;4.50;94.80;;;;;;5006464;28;20069;-80
2023/02/06 06:00:43;;;;;;;69.30;66.80;;;4.50;94.70;;;;;;5007838;28;20046;-80
2023/02/06 06:03:08;;;;;;;68.55;66.05;;;4.40;94.70;;;;;;5007914;28;20522;-80
2023/02/06 06:05:34;;;;;;;72.05;69.45;;;4.50;94.70;;;;;;5007867;28;20038;-78
2023/02/06 06:08:00;;;;;;;72.25;69.63;;;4.40;94.70;;;;;;5006448;28;20479;-80
2023/02/06 06:10:25;;;;;;;66.47;64.07;;;4.40;94.70;;;;;;5010717;28;20034;-80
2023/02/06 06:12:51;;;;;;;62.42;60.13;;;4.40;94.70;;;;;;5007832;28;20074;-80
2023/02/06 06:15:17;;;;;;;64.57;62.17;;;4.40;94.60;;;;;;5006508;28;20030;-80
2023/02/06 06:17:42;;;;;;;61.88;59.58;;;4.30;94.60;;;;;;4990034;28;20128;-80
2023/02/06 06:20:08;;;;;;;63.33;61.03;;;4.20;94.60;;;;;;5007818;28;20053;-80
2023/02/06 06:22:34;;;;;;;65.53;63.13;;;4.10;94.60;;;;;;5006444;28;20033;-80
2023/02/06 06:25:00;;;;;;;64.78;62.38;;;4.10;94.70;;;;;;5006404;28;20022;-80
2023/02/06 06:27:26;;;;;;;67.18;64.78;;;4.10;94.70;;;;;;5007640;28;20381;-80
2023/02/06 06:29:51;;;;;;;63.83;61.53;;;4.10;94.90;;;;;;4989924;28;20489;-80
2023/02/06 06:32:18;;;;;;;61.58;59.30;;;4.10;95.00;;;;;;5006322;28;20026;-80
2023/02/06 06:34:43;;;;;;;65.38;62.97;;;4.10;95.00;;;;;;5007568;28;20073;-80
2023/02/06 06:37:09;;;;;;;64.15;61.80;;;4.20;95.00;;;;;;5006162;28;20062;-80
2023/02/06 06:39:35;;;;;;;64.68;62.28;;;4.30;95.00;;;;;;5006274;28;20132;-80
2023/02/06 06:42:03;;;;;;;67.57;65.07;;;4.30;95.00;;;;;;5009815;28;20045;-80
2023/02/06 06:44:29;;;;;;;75.80;73.05;;;4.30;95.00;;;;;;5011192;28;20127;-80
2023/02/06 06:46:55;;;;;;;;;;;4.30;95.00;;;;;;5010118;28;20532;-80
2023/02/06 06:49:20;;;;;;;69.80;67.25;;;4.40;95.20;;;;;;5011217;28;19960;-80
2023/02/06 06:51:46;;;;;;;70.85;68.25;;;4.50;95.30;;;;;;5011156;28;20057;-80
2023/02/06 06:54:12;;;;;;;68.57;66.07;;;4.70;95.20;;;;;;5011226;28;20069;-80
2023/02/06 06:56:37;;;;;;;66.88;64.40;;;4.90;95.30;;;;;;5009534;28;20037;-80
2023/02/06 06:59:03;;;;;;;68.93;66.40;;;5.10;95.30;;;;;;5009892;28;20061;-79
2023/02/06 07:01:28;;;;;;;67.60;65.10;;;5.30;95.30;;;;;;5010949;28;20096;-80
2023/02/06 07:03:54;;;;;;;66.35;63.85;;;5.40;95.20;;;;;;5010950;28;20395;-80
2023/02/06 07:06:20;;;;;;;66.30;63.85;;;5.60;95.20;;;;;;5009626;28;20059;-80
2023/02/06 07:08:45;;;;;;;67.45;64.95;;;5.80;95.20;;;;;;4993291;28;20037;-80
2023/02/06 07:11:13;;;;;;;70.15;67.55;;;5.90;95.10;;;;;;5010784;28;20414;-80
2023/02/06 07:13:40;;;;;;;70.60;68.00;;;6.00;95.10;;;;;;5010728;28;20104;-79
2023/02/06 07:16:06;;;;;;;70.47;67.88;;;6.10;95.10;;;;;;5009121;28;20548;-80
2023/02/06 07:18:31;;;;;;;72.10;69.45;;;6.20;95.20;;;;;;5010672;28;20037;-80
2023/02/06 07:20:57;;;;;;;72.55;69.85;;;6.30;95.20;;;;;;5009235;28;20494;-80
2023/02/06 07:23:23;;;;;;;72.60;69.90;;;6.40;95.20;;;;;;5009218;28;20034;-80
2023/02/06 07:25:49;;;;;;;75.00;72.20;;;6.40;95.10;;;;;;5009161;28;20065;-80
2023/02/06 07:28:15;;;;;;;73.75;71.05;;;6.50;95.10;;;;;;5010349;28;20050;-80
2023/02/06 07:30:40;;;;;;;73.63;70.93;;;6.50;95.00;;;;;;4992889;28;20466;-80
2023/02/06 07:33:06;;;;;;;77.80;74.90;;;6.50;95.00;;;;;;5010479;28;20026;-79
2023/02/06 07:35:33;;;;;;;76.43;73.63;;;6.50;95.10;;;;;;5009073;28;20502;-80
2023/02/06 07:37:58;;;;;;;75.78;72.97;;;6.50;95.10;;;;;;5010205;28;20643;-80
2023/02/06 07:40:24;;;;;;;75.05;72.25;;;6.50;95.10;;;;;;5009019;28;20113;-80
2023/02/06 07:42:50;;;;;;;77.88;74.97;;;6.50;95.10;;;;;;5010278;28;20030;-80
2023/02/06 07:45:16;;;;;;;75.88;73.07;;;6.50;95.10;;;;;;5012682;28;20029;-79
2023/02/06 07:47:44;;;;;;;75.38;72.57;;;6.50;95.10;;;;;;5008906;28;20034;-80
2023/02/06 07:50:10;;;;;;;76.20;73.40;;;6.50;95.00;;;;;;5010096;28;20023;-80
2023/02/06 07:52:36;;;;;;;;;;;6.50;95.00;;;;;;5008829;28;20030;-80
2023/02/06 07:55:03;;;;;;;80.15;77.25;;;6.50;95.00;;;;;;5009729;28;20392;-80
2023/02/06 07:57:29;;;;;;;76.78;73.97;;;6.40;94.90;;;;;;5009657;28;20059;-79
2023/02/06 07:59:54;;;;;;;77.78;74.88;;;6.30;94.90;;;;;;5008597;28;20038;-79
2023/02/06 08:02:20;;;;;;;82.15;79.07;;;6.30;94.90;;;;;;5009882;28;20610;-79
2023/02/06 08:04:46;;;;;;;82.50;79.43;;;6.20;94.90;;;;;;5008536;28;20029;-80
2023/02/06 08:07:13;;;;;;;84.57;81.47;;;6.10;94.90;;;;;;5008357;28;20041;-80
2023/02/06 08:09:41;;;;;;;82.30;79.30;;;6.00;95.00;;;;;;5008254;28;20504;-80
2023/02/06 08:12:07;;;;;;;83.93;80.82;;;6.00;95.00;;;;;;5009100;28;20390;-81
2023/02/06 08:14:32;;;;;;;83.18;80.07;;;6.00;95.30;;;;;;5008310;28;20545;-80
2023/02/06 08:16:58;;;;;;;81.05;78.05;;;6.00;95.20;;;;;;5009579;28;20038;-80
2023/02/06 08:19:24;;;;;;;79.47;76.53;;;6.00;95.20;;;;;;5009419;28;20037;-80
2023/02/06 08:21:50;;;;;;;78.45;75.55;;;6.00;95.20;;;;;;5008099;28;20045;-80
2023/02/06 08:24:16;;;;;;;78.53;75.63;;;6.10;95.20;;;;;;5008140;28;20034;-80
2023/02/06 08:26:42;;;;;;;81.18;78.18;;;6.10;95.20;;;;;;5009399;28;20041;-79
2023/02/06 08:29:09;;;;;;;79.68;76.75;;;6.10;95.20;;;;;;5007924;28;20390;-80
2023/02/06 08:31:40;;;;;;;78.10;75.10;;;6.20;95.20;;;;;;5007552;28;20289;-80
2023/02/06 08:34:07;;;;;;;67.47;64.88;;;6.20;95.20;;;;;;5007791;28;20022;-80
2023/02/06 08:36:33;;;;;;;65.63;63.13;;;6.30;95.20;;;;;;5008904;28;20608;-80
2023/02/06 08:39:00;;;;;;;66.32;63.83;;;6.30;95.30;;;;;;5009218;28;20034;-80
2023/02/06 08:41:29;;;;;;;65.38;62.88;;;6.40;95.30;;;;;;5008936;28;20501;-80
2023/02/06 08:43:57;;;;;;;67.22;64.63;;;6.50;95.30;;;;;;5009086;28;20084;-80
2023/02/06 08:46:27;;;;;;;64.53;62.03;;;6.60;95.40;;;;;;5008805;28;20030;-80
2023/02/06 08:48:57;;;;;;;63.25;60.85;;;6.70;95.40;;;;;;5008961;28;20493;-80
2023/02/06 08:51:26;;;;;;;64.53;62.03;;;6.80;95.40;;;;;;5008812;28;20125;-80
2023/02/06 08:53:56;;;;;;;60.03;57.72;;;6.90;95.50;;;;;;5008910;28;20022;-80
2023/02/06 08:56:21;;;;;;;60.65;58.35;;;7.00;95.50;;;;;;5007370;28;20676;-80
2023/02/06 08:58:47;;;;;;;63.30;60.90;;;7.20;95.50;;;;;;5008710;28;20069;-79
2023/02/06 09:01:15;;;;;;;62.55;60.15;;;7.30;95.50;;;;;;5008188;28;20487;-80
2023/02/06 09:03:42;;;;;;;63.70;61.30;;;7.40;95.40;;;;;;5007894;28;20026;-79
2023/02/06 09:06:11;;;;;;;62.47;60.08;;;7.50;95.50;;;;;;5007469;28;20107;-80
2023/02/06 09:08:37;;;;;;;60.80;58.50;;;7.60;95.70;;;;;;5007523;28;20114;-80
2023/02/06 09:11:09;;;;;;;62.42;60.13;;;7.70;95.50;;;;;;5007247;28;20406;-79
2023/02/06 09:13:35;;;;;;;62.60;60.30;;;7.80;95.60;;;;;;5008403;28;20030;-80
2023/02/06 09:16:01;;;;;;;58.92;56.72;;;8.00;95.60;;;;;;5008312;28;20034;-80
2023/02/06 09:18:27;;;;;;;56.30;54.20;;;8.10;95.60;;;;;;5007691;28;20038;-80
2023/02/06 09:21:06;;;;;;;53.25;51.25;;;8.20;95.60;;;;;;5013428;28;20032;-78
2023/02/06 09:23:31;;;;;;;49.47;47.58;;;8.30;95.70;;;;;;5006863;28;20038;-80
2023/02/06 09:25:57;;;;;;;48.92;47.08;;;8.50;95.70;;;;;;5008064;28;20181;-80
2023/02/06 09:28:23;;;;;;;46.65;44.85;;;8.60;95.70;;;;;;5008072;28;20042;-80
2023/02/06 09:30:49;;;;;;;43.78;42.08;;;8.80;95.80;;;;;;5006958;28;20022;-80
2023/02/06 09:33:15;;;;;;;41.60;40.00;;;9.00;95.80;;;;;;5006606;28;20034;-80
2023/02/06 09:35:40;;;;;;;42.58;40.97;;;9.10;95.80;;;;;;5007923;28;20030;-80
2023/02/06 09:38:06;;;;;;;38.20;36.80;;;9.20;95.70;;;;;;5006892;28;20110;-79
2023/02/06 09:40:34;;;;;;;37.67;36.28;;;9.30;95.80;;;;;;5006739;28;20475;-80
2023/02/06 09:43:02;;;;;;;35.03;33.72;;;9.50;95.80;;;;;;5008237;28;20113;-79
2023/02/06 09:45:30;;;;;;;32.97;31.70;;;9.70;95.90;;;;;;5007880;28;20116;-78
2023/02/06 09:48:18;;;;;;;26.42;25.42;;;9.90;96.00;;;;;;5006888;28;20029;-79
2023/02/06 09:51:02;;;;;;;25.23;24.23;;;10.30;96.20;;;;;;5007966;28;20116;-78
2023/02/06 09:53:54;;;;;;;26.27;25.27;;;10.70;96.00;;;;;;5007653;28;20029;-79
2023/02/06 09:56:32;;;;;;;26.10;25.10;;;10.70;95.60;;;;;;5007743;28;20022;-79
2023/02/06 09:59:28;;;;;;;24.38;23.38;;;10.70;95.60;;;;;;5007528;28;20459;-79
2023/02/06 10:02:06;;;;;;;22.10;21.20;;;10.70;95.80;;;;;;5007594;28;20061;-80
2023/02/06 10:04:32;;;;;;;19.85;19.05;;;10.80;96.00;;;;;;5007590;28;20104;-79
2023/02/06 10:07:09;;;;;;;17.00;16.30;;;10.90;96.10;;;;;;5007474;28;20105;-79
2023/02/06 10:09:57;;;;;;;12.75;12.15;;;11.10;96.50;;;;;;5007593;28;20061;-79
2023/02/06 10:12:50;;;;;;;8.52;8.13;;;11.70;97.00;;;;;;5007852;28;20108;-79
2023/02/06 10:15:24;;;;;;;7.35;6.95;;;12.70;96.90;;;;;;5010179;28;20041;-79
2023/02/06 10:17:56;;;;;;;8.85;8.45;;;12.90;96.10;;;;;;5011303;28;20498;-77
2023/02/06 10:20:34;;;;;;;7.55;7.15;;;12.80;95.80;;;;;;5011049;28;20026;-78
2023/02/06 10:23:09;;;;;;;7.63;7.22;;;12.70;95.80;;;;;;5011653;28;20026;-77
2023/02/06 10:26:01;;;;;;;7.90;7.50;;;12.60;95.60;;;;;;5009667;28;20048;-78
2023/02/06 10:28:29;;;;;;;8.85;8.45;;;12.40;95.70;;;;;;5009747;28;20029;-78
2023/02/06 10:31:19;;;;;;;8.48;8.07;;;12.20;95.70;;;;;;5009516;28;20394;-77
2023/02/06 10:33:48;;;;;;;10.13;9.63;;;12.00;95.60;;;;;;5009615;28;20029;-78
2023/02/06 10:36:19;;;;;;;10.25;9.75;;;11.80;95.60;;;;;;5011069;28;20041;-78
2023/02/06 10:39:22;;;;;;;10.52;10.02;;;11.60;95.70;;;;;;5010698;28;20339;-79
2023/02/06 10:42:13;;;;;;;10.52;10.02;;;11.40;95.90;;;;;;5010418;28;20033;-78
2023/02/06 10:45:08;;;;;;;10.40;9.90;;;11.40;96.00;;;;;;5010863;28;20018;-77
2023/02/06 10:47:42;;;;;;;9.95;9.45;;;11.40;96.00;;;;;;5009457;28;20233;-77
2023/02/06 10:50:34;;;;;;;9.20;8.77;;;11.50;96.30;;;;;;5010647;28;20062;-78
2023/02/06 10:53:25;;;;;;;8.02;7.63;;;11.80;96.40;;;;;;5010082;28;20038;-77
2023/02/06 10:56:00;;;;;;;7.55;7.15;;;12.00;96.30;;;;;;5010001;28;20044;-77
2023/02/06 10:58:41;;;;;;;6.13;5.82;;;12.10;96.30;;;;;;5010916;28;20402;-80
2023/02/06 11:01:11;;;;;;;7.47;7.07;;;12.30;96.20;;;;;;5010313;28;20091;-80
2023/02/06 11:03:43;;;;;;;5.88;5.57;;;12.40;96.10;;;;;;5011009;28;20042;-79
2023/02/06 11:06:14;;;;;;;4.82;4.53;;;12.50;96.20;;;;;;5008744;28;20093;-80
2023/02/06 11:08:43;;;;;;;5.95;5.65;;;12.60;96.20;;;;;;5010183;28;20025;-78
2023/02/06 11:11:21;;;;;;;5.13;4.82;;;12.70;96.10;;;;;;5009076;28;20026;-78
2023/02/06 11:14:01;;;;;;;4.80;4.50;;;12.80;96.10;;;;;;5009517;28;20044;-78
2023/02/06 11:16:28;;;;;;;4.30;4.00;;;12.80;96.10;;;;;;5010005;28;20026;-77
2023/02/06 11:18:58;;;;;;;4.25;3.95;;;13.00;96.20;;;;;;5009799;28;20026;-78
2023/02/06 11:22:13;;;;;;;4.32;4.03;;;13.00;96.20;;;;;;5010111;28;20037;-78
2023/02/06 11:24:58;;;;;;;3.38;3.13;;;13.10;96.20;;;;;;4999918;28;20139;-78
2023/02/06 11:27:25;;;;;;;3.63;3.33;;;13.20;96.40;;;;;;5008041;28;20092;-77
2023/02/06 11:29:50;;;;;;;2.60;2.40;;;13.30;96.60;;;;;;5009994;28;20108;-78
2023/02/06 11:32:42;;;;;;;0.60;0.60;;;13.80;97.00;;;;;;5010101;28;20101;-77
2023/02/06 11:35:47;;;;;;;0.10;0.10;;;14.60;97.20;;;;;;5009480;28;20033;-77
2023/02/06 11:38:20;;;;;;;0.10;0.10;;;15.10;96.80;;;;;;5009739;28;20074;-77
2023/02/06 11:41:04;;;;;;;0.00;0.00;;;15.50;96.80;;;;;;5009418;28;20113;-77
2023/02/06 11:43:47;;;;;;;0.00;0.00;;;15.70;96.50;;;;;;5009370;28;20022;-78
2023/02/06 11:46:24;;;;;;;0.00;0.00;;;15.60;96.30;;;;;;5008081;28;20034;-78
2023/02/06 11:48:57;;;;;;;0.00;0.00;;;15.30;96.00;;;;;;5008029;28;20022;-75
2023/02/06 11:51:24;;;;;;;0.03;0.03;;;15.00;96.50;;;;;;5008988;28;20018;-77
2023/02/06 11:53:54;;;;;;;0.10;0.10;;;14.80;96.70;;;;;;5007898;28;20587;-77
2023/02/06 11:56:20;;;;;;;0.00;0.00;;;15.00;97.30;;;;;;5009270;28;20022;-77
2023/02/06 11:58:59;;;;;;;0.00;0.00;;;15.30;97.30;;;;;;5009117;28;20045;-78
2023/02/06 12:01:25;;;;;;;0.00;0.00;;;15.60;97.50;;;;;;5008917;28;20032;-77
2023/02/06 12:03:54;;;;;;;0.00;0.00;;;16.00;97.60;;;;;;5009543;28;20374;-78
2023/02/06 12:06:33;;;;;;;0.00;0.00;;;16.40;97.50;;;;;;5007564;28;20041;-78
2023/02/06 12:09:02;;;;;;;0.00;0.00;;;16.70;97.40;;;;;;5009157;28;20029;-78
2023/02/06 12:11:44;;;;;;;0.00;0.00;;;17.00;97.30;;;;;;5007409;28;20044;-78
2023/02/06 12:14:30;;;;;;;0.35;0.25;;;17.20;97.20;;;;;;5008709;28;20038;-77
2023/02/06 12:17:00;;;;;;;0.00;0.00;;;17.40;97.10;;;;;;5007378;28;20030;-78
2023/02/06 12:19:32;;;;;;;0.00;0.00;;;17.60;97.40;;;;;;5009066;28;20026;-78
2023/02/06 12:22:21;;;;;;;0.00;0.00;;;17.90;97.50;;;;;;5008905;28;20409;-77
2023/02/06 12:24:50;;;;;;;0.08;0.00;;;18.20;97.20;;;;;;5008857;28;20501;-77
2023/02/06 12:27:21;;;;;;;0.00;0.00;;;18.30;97.30;;;;;;5007021;28;20029;-77
2023/02/06 12:30:23;;;;;;;0.00;0.00;;;18.60;97.00;;;;;;5008450;28;20030;-77
2023/02/06 12:33:12;;;;;;;0.00;0.00;;;18.60;97.20;;;;;;5008276;28;20273;-78
2023/02/06 12:35:54;;;;;;;0.00;0.00;;;18.90;97.20;;;;;;5010541;28;20606;-78
2023/02/06 12:38:48;;;;;;;0.00;0.00;;;19.00;97.30;;;;;;5006292;28;20028;-78
2023/02/06 12:41:25;;;;;;;0.00;0.00;;;19.10;97.20;;;;;;5008470;28;20026;-78
2023/02/06 12:43:58;;;;;;;0.00;0.00;;;19.00;96.80;;;;;;5007216;28;20030;-78
2023/02/06 12:46:26;;;;;;;0.10;0.10;;;18.60;96.70;;;;;;5008968;28;20072;-78
2023/02/06 12:49:12;;;;;;;0.00;0.00;;;18.30;96.60;;;;;;5008198;28;20022;-78
2023/02/06 12:52:03;;;;;;;0.00;0.00;;;17.70;96.40;;;;;;5006830;28;20118;-78
2023/02/06 12:54:29;;;;;;;0.00;0.00;;;17.20;96.50;;;;;;5008112;28;20037;-78
2023/02/06 12:57:01;;;;;;;0.00;0.00;;;16.80;96.40;;;;;;5008229;28;20042;-78
2023/02/06 12:59:39;;;;;;;0.00;0.00;;;16.50;97.10;;;;;;5007962;28;20183;-78